createdAt,value
2023-03-14T00:00:49.054Z,49.95
2023-03-14T00:01:49.018Z,48.98
2023-03-14T00:04:45.776Z,48.34
2023-03-14T00:05:45.782Z,47.05
2023-03-14T00:06:45.756Z,46.89
2023-03-14T00:07:45.742Z,48.82
2023-03-14T00:08:45.739Z,48.34
2023-03-14T00:09:45.720Z,50.60
2023-03-14T00:10:45.723Z,54.79
2023-03-14T00:11:45.745Z,48.66
2023-03-14T00:12:45.695Z,49.31
2023-03-14T00:13:45.680Z,48.82
2023-03-14T00:14:45.668Z,48.02
2023-03-14T00:15:45.720Z,49.15
2023-03-14T00:16:45.775Z,48.66
2023-03-14T00:17:45.629Z,49.63
2023-03-14T00:18:45.630Z,50.11
2023-03-14T00:19:45.618Z,47.86
2023-03-14T00:20:45.611Z,48.50
2023-03-14T00:21:45.594Z,50.43
2023-03-14T00:22:45.579Z,48.98
2023-03-14T00:23:45.577Z,50.76
2023-03-14T00:24:45.560Z,49.47
2023-03-14T00:25:45.549Z,48.82
2023-03-14T00:26:45.536Z,48.50
2023-03-14T00:27:45.519Z,49.63
2023-03-14T00:28:45.531Z,49.79
2023-03-14T00:29:45.502Z,49.31
2023-03-14T00:30:45.506Z,52.53
2023-03-14T00:31:45.485Z,51.24
2023-03-14T00:32:45.544Z,52.85
2023-03-14T00:33:45.458Z,52.69
2023-03-14T00:34:45.445Z,49.63
2023-03-14T00:35:45.498Z,50.43
2023-03-14T00:36:45.422Z,53.17
2023-03-14T00:37:45.414Z,52.69
2023-03-14T00:38:45.415Z,48.82
2023-03-14T00:39:45.387Z,58.01
2023-03-14T00:40:45.396Z,49.31
2023-03-14T00:41:45.376Z,53.66
2023-03-14T00:42:45.365Z,58.01
2023-03-14T00:43:45.346Z,51.24
2023-03-14T00:44:45.357Z,51.56
2023-03-14T00:45:45.336Z,51.56
2023-03-14T00:46:45.360Z,48.82
2023-03-14T00:47:45.298Z,46.41
2023-03-14T00:48:45.300Z,48.66
2023-03-14T00:49:45.286Z,52.69
2023-03-14T00:50:45.282Z,46.89
2023-03-14T00:51:45.274Z,46.89
2023-03-14T00:52:45.249Z,46.41
2023-03-14T00:53:45.242Z,46.89
2023-03-14T00:54:45.225Z,47.05
2023-03-14T00:55:45.221Z,46.89
2023-03-14T00:56:45.209Z,48.98
2023-03-14T00:57:45.189Z,53.66
2023-03-14T00:58:45.183Z,48.18
2023-03-14T00:59:45.168Z,49.15
2023-03-14T01:00:45.184Z,48.34
2023-03-14T01:01:45.182Z,48.02
2023-03-14T01:02:45.150Z,46.41
2023-03-14T01:03:45.130Z,48.98
2023-03-14T01:04:45.133Z,47.86
2023-03-14T01:05:45.116Z,49.47
2023-03-14T01:06:45.108Z,51.24
2023-03-14T01:07:45.084Z,47.05
2023-03-14T01:08:45.072Z,48.18
2023-03-14T01:09:45.076Z,45.60
2023-03-14T01:10:45.073Z,48.18
2023-03-14T01:11:45.041Z,47.53
2023-03-14T01:12:45.034Z,46.73
2023-03-14T01:13:45.028Z,46.41
2023-03-14T01:14:45.046Z,48.82
2023-03-14T01:15:45.097Z,50.27
2023-03-14T01:16:44.998Z,50.43
2023-03-14T01:17:44.980Z,50.76
2023-03-14T01:18:44.977Z,48.34
2023-03-14T01:19:44.986Z,48.02
2023-03-14T01:20:44.961Z,52.21
2023-03-14T01:21:44.944Z,60.75
2023-03-14T01:22:44.930Z,54.14
2023-03-14T01:23:44.914Z,47.53
2023-03-14T01:24:44.907Z,45.92
2023-03-14T01:25:44.912Z,51.88
2023-03-14T01:26:44.892Z,52.85
2023-03-14T01:27:44.869Z,61.87
2023-03-14T01:28:44.865Z,46.89
2023-03-14T01:29:44.850Z,46.57
2023-03-14T01:30:44.848Z,49.47
2023-03-14T01:31:44.885Z,52.05
2023-03-14T01:32:44.829Z,47.70
2023-03-14T01:33:44.815Z,54.79
2023-03-14T01:34:44.800Z,47.70
2023-03-14T01:35:44.830Z,48.66
2023-03-14T01:36:44.783Z,44.79
2023-03-14T01:37:44.772Z,46.73
2023-03-14T01:38:44.760Z,48.98
2023-03-14T01:39:44.742Z,48.66
2023-03-14T01:40:44.748Z,51.56
2023-03-14T01:41:44.726Z,50.43
2023-03-14T01:42:44.721Z,48.34
2023-03-14T01:43:44.707Z,50.11
2023-03-14T01:44:44.699Z,55.75
2023-03-14T01:45:44.740Z,48.98
2023-03-14T01:46:44.677Z,47.05
2023-03-14T01:47:44.666Z,48.66
2023-03-14T01:48:44.658Z,48.34
2023-03-14T01:49:44.641Z,48.50
2023-03-14T01:50:44.784Z,46.25
2023-03-14T01:51:44.619Z,47.05
2023-03-14T01:52:44.682Z,49.31
2023-03-14T01:53:44.598Z,47.37
2023-03-14T01:54:44.592Z,46.73
2023-03-14T01:55:44.583Z,62.04
2023-03-14T01:56:44.592Z,56.24
2023-03-14T01:57:44.571Z,48.98
2023-03-14T01:58:44.582Z,47.86
2023-03-14T01:59:44.570Z,46.41
2023-03-14T02:00:44.537Z,47.05
2023-03-14T02:01:44.557Z,49.47
2023-03-14T02:02:44.518Z,45.44
2023-03-14T02:03:44.599Z,46.73
2023-03-14T02:04:44.492Z,48.18
2023-03-14T02:05:44.487Z,45.60
2023-03-14T02:06:44.480Z,45.76
2023-03-14T02:07:44.468Z,48.34
2023-03-14T02:08:44.498Z,50.60
2023-03-14T02:09:44.436Z,53.66
2023-03-14T02:10:44.421Z,46.08
2023-03-14T02:11:44.445Z,48.02
2023-03-14T02:12:44.400Z,47.37
2023-03-14T02:13:44.397Z,47.05
2023-03-14T02:14:44.379Z,47.37
2023-03-14T02:15:44.362Z,47.53
2023-03-14T02:16:44.453Z,45.28
2023-03-14T02:17:44.338Z,60.10
2023-03-14T02:18:44.331Z,47.21
2023-03-14T02:19:44.316Z,46.08
2023-03-14T02:20:44.311Z,46.57
2023-03-14T02:21:44.302Z,62.68
2023-03-14T02:22:44.296Z,51.72
2023-03-14T02:23:44.275Z,52.53
2023-03-14T02:24:44.266Z,48.50
2023-03-14T02:25:44.250Z,50.27
2023-03-14T02:26:44.255Z,49.47
2023-03-14T02:27:44.227Z,47.70
2023-03-14T02:28:44.223Z,60.26
2023-03-14T02:29:44.210Z,50.43
2023-03-14T02:30:44.220Z,49.95
2023-03-14T02:31:44.233Z,53.01
2023-03-14T02:32:44.217Z,50.92
2023-03-14T02:33:44.168Z,48.98
2023-03-14T02:34:44.175Z,46.25
2023-03-14T02:35:44.159Z,59.30
2023-03-14T02:36:44.154Z,62.52
2023-03-14T02:37:44.130Z,63.16
2023-03-14T02:38:44.123Z,50.76
2023-03-14T02:39:44.121Z,54.14
2023-03-14T02:40:44.113Z,48.34
2023-03-14T02:41:44.104Z,46.89
2023-03-14T02:42:44.110Z,54.62
2023-03-14T02:43:44.079Z,53.01
2023-03-14T02:44:44.070Z,50.27
2023-03-14T02:45:44.059Z,58.81
2023-03-14T02:46:44.046Z,60.42
2023-03-14T02:47:44.041Z,50.76
2023-03-14T02:48:44.033Z,59.94
2023-03-14T02:49:44.014Z,55.91
2023-03-14T02:50:44.002Z,50.27
2023-03-14T02:51:44.018Z,53.17
2023-03-14T02:52:44.000Z,61.55
2023-03-14T02:53:43.969Z,49.31
2023-03-14T02:54:43.960Z,48.82
2023-03-14T02:55:43.950Z,48.50
2023-03-14T02:56:44.110Z,48.98
2023-03-14T02:57:43.944Z,60.10
2023-03-14T02:58:43.923Z,51.88
2023-03-14T02:59:43.908Z,46.73
2023-03-14T03:00:43.900Z,61.55
2023-03-14T03:01:45.008Z,51.56
2023-03-14T03:02:45.015Z,50.11
2023-03-14T03:03:46.074Z,50.27
2023-03-14T03:04:44.994Z,51.08
2023-03-14T03:05:44.983Z,50.76
2023-03-14T03:06:44.978Z,49.79
2023-03-14T03:07:44.977Z,48.98
2023-03-14T03:08:44.970Z,53.66
2023-03-14T03:09:44.939Z,50.43
2023-03-14T03:10:44.929Z,48.02
2023-03-14T03:11:44.928Z,49.15
2023-03-14T03:12:44.924Z,48.82
2023-03-14T03:13:44.908Z,57.69
2023-03-14T03:14:44.897Z,55.27
2023-03-14T03:15:45.870Z,48.98
2023-03-14T03:16:44.931Z,47.70
2023-03-14T03:17:44.872Z,47.21
2023-03-14T03:18:44.866Z,60.91
2023-03-14T03:19:44.843Z,46.57
2023-03-14T03:20:44.835Z,48.18
2023-03-14T03:21:44.825Z,51.08
2023-03-14T03:22:44.822Z,46.73
2023-03-14T03:23:44.809Z,47.70
2023-03-14T03:24:44.803Z,53.17
2023-03-14T03:25:44.805Z,48.34
2023-03-14T03:26:44.797Z,52.53
2023-03-14T03:27:44.788Z,56.72
2023-03-14T03:28:44.776Z,52.37
2023-03-14T03:29:44.771Z,48.98
2023-03-14T03:30:44.835Z,61.87
2023-03-14T03:31:44.727Z,51.24
2023-03-14T03:32:44.795Z,48.66
2023-03-14T03:33:44.713Z,58.01
2023-03-14T03:34:44.686Z,49.95
2023-03-14T03:35:44.724Z,51.24
2023-03-14T03:36:44.703Z,50.92
2023-03-14T03:37:44.672Z,50.92
2023-03-14T03:38:44.668Z,50.27
2023-03-14T03:39:44.649Z,51.72
2023-03-14T03:40:44.655Z,51.56
2023-03-14T03:41:44.636Z,61.39
2023-03-14T03:42:44.652Z,49.47
2023-03-14T03:43:44.627Z,58.81
2023-03-14T03:44:44.598Z,52.05
2023-03-14T03:45:44.650Z,59.78
2023-03-14T03:46:44.610Z,56.72
2023-03-14T03:47:44.579Z,61.39
2023-03-14T03:48:44.569Z,55.27
2023-03-14T03:49:44.573Z,51.08
2023-03-14T03:50:44.539Z,54.14
2023-03-14T03:51:44.557Z,48.66
2023-03-14T03:52:44.531Z,49.15
2023-03-14T03:53:44.500Z,49.95
2023-03-14T03:54:44.509Z,65.10
2023-03-14T03:55:44.496Z,62.68
2023-03-14T03:56:44.489Z,61.39
2023-03-14T03:57:44.483Z,62.68
2023-03-14T03:58:44.467Z,54.30
2023-03-14T03:59:44.458Z,60.10
2023-03-14T04:00:44.440Z,58.81
2023-03-14T04:01:44.426Z,55.11
2023-03-14T04:02:44.483Z,50.76
2023-03-14T04:03:44.450Z,59.78
2023-03-14T04:04:44.399Z,51.24
2023-03-14T04:05:44.394Z,54.95
2023-03-14T04:06:44.424Z,58.17
2023-03-14T04:07:44.396Z,54.95
2023-03-14T04:08:44.373Z,50.76
2023-03-14T04:09:44.343Z,67.35
2023-03-14T04:10:44.333Z,59.30
2023-03-14T04:11:44.358Z,61.39
2023-03-14T04:12:44.326Z,57.04
2023-03-14T04:13:44.314Z,58.97
2023-03-14T04:14:44.292Z,54.30
2023-03-14T04:15:44.336Z,61.39
2023-03-14T04:16:44.273Z,60.26
2023-03-14T04:17:44.276Z,63.97
2023-03-14T04:18:44.270Z,66.71
2023-03-14T04:19:44.255Z,59.46
2023-03-14T04:20:44.242Z,62.36
2023-03-14T04:21:44.233Z,65.74
2023-03-14T04:22:44.719Z,58.01
2023-03-14T04:23:45.223Z,60.42
2023-03-14T04:24:44.206Z,52.69
2023-03-14T04:25:44.192Z,59.30
2023-03-14T04:26:44.189Z,62.36
2023-03-14T04:27:44.195Z,60.91
2023-03-14T04:28:44.144Z,61.39
2023-03-14T04:29:44.158Z,67.19
2023-03-14T04:30:44.146Z,63.33
2023-03-14T04:31:44.127Z,62.68
2023-03-14T04:32:44.195Z,58.49
2023-03-14T04:33:45.704Z,63.49
2023-03-14T04:34:45.089Z,60.75
2023-03-14T04:35:44.163Z,56.40
2023-03-14T04:36:44.079Z,61.87
2023-03-14T04:37:44.069Z,69.77
2023-03-14T04:38:44.064Z,52.21
2023-03-14T04:39:44.034Z,61.39
2023-03-14T04:40:44.025Z,62.36
2023-03-14T04:41:44.024Z,60.91
2023-03-14T04:42:44.021Z,57.52
2023-03-14T04:43:44.004Z,70.74
2023-03-14T04:44:43.995Z,55.27
2023-03-14T04:45:43.983Z,53.66
2023-03-14T04:46:44.038Z,50.11
2023-03-14T04:47:43.971Z,50.60
2023-03-14T04:48:43.955Z,50.60
2023-03-14T04:49:43.941Z,60.91
2023-03-14T04:50:43.938Z,50.92
2023-03-14T04:51:43.924Z,60.10
2023-03-14T04:52:43.913Z,60.75
2023-03-14T04:53:43.906Z,60.10
2023-03-14T04:54:43.875Z,60.91
2023-03-14T04:55:43.875Z,61.39
2023-03-14T04:56:43.877Z,59.78
2023-03-14T04:57:43.845Z,59.78
2023-03-14T04:58:43.865Z,61.87
2023-03-14T04:59:43.841Z,60.59
2023-03-14T05:00:43.838Z,61.87
2023-03-14T05:01:43.849Z,61.23
2023-03-14T05:02:43.915Z,59.78
2023-03-14T05:03:43.814Z,60.59
2023-03-14T05:04:43.781Z,63.97
2023-03-14T05:05:43.832Z,64.94
2023-03-14T05:06:43.749Z,62.04
2023-03-14T05:07:43.735Z,61.71
2023-03-14T05:08:43.757Z,61.71
2023-03-14T05:09:43.765Z,55.43
2023-03-14T05:10:43.705Z,60.26
2023-03-14T05:11:43.709Z,60.75
2023-03-14T05:12:43.711Z,60.91
2023-03-14T05:13:43.712Z,52.53
2023-03-14T05:14:43.678Z,62.84
2023-03-14T05:15:43.684Z,61.55
2023-03-14T05:16:43.665Z,63.65
2023-03-14T05:17:43.667Z,60.75
2023-03-14T05:18:43.651Z,61.55
2023-03-14T05:19:43.670Z,58.81
2023-03-14T05:20:43.622Z,62.36
2023-03-14T05:21:43.618Z,62.04
2023-03-14T05:22:43.607Z,60.42
2023-03-14T05:23:43.611Z,60.75
2023-03-14T05:24:43.575Z,62.36
2023-03-14T05:25:43.559Z,59.30
2023-03-14T05:26:43.576Z,56.88
2023-03-14T05:27:43.539Z,54.95
2023-03-14T05:28:43.547Z,61.87
2023-03-14T05:29:43.518Z,62.04
2023-03-14T05:30:43.535Z,63.16
2023-03-14T05:31:43.602Z,62.36
2023-03-14T05:32:43.586Z,64.61
2023-03-14T05:33:43.498Z,62.52
2023-03-14T05:34:43.482Z,64.78
2023-03-14T05:35:43.563Z,61.55
2023-03-14T05:36:43.450Z,57.52
2023-03-14T05:37:43.450Z,60.91
2023-03-14T05:38:43.441Z,60.26
2023-03-14T05:39:43.429Z,65.26
2023-03-14T05:40:43.436Z,62.84
2023-03-14T05:41:43.402Z,61.55
2023-03-14T05:42:43.393Z,63.33
2023-03-14T05:43:43.420Z,68.48
2023-03-14T05:44:43.365Z,61.07
2023-03-14T05:45:43.430Z,66.71
2023-03-14T05:46:43.349Z,66.55
2023-03-14T05:47:43.348Z,64.45
2023-03-14T05:48:43.359Z,66.87
2023-03-14T05:49:43.325Z,62.04
2023-03-14T05:50:43.334Z,60.26
2023-03-14T05:51:43.320Z,65.10
2023-03-14T05:52:43.343Z,64.29
2023-03-14T05:53:43.315Z,62.04
2023-03-14T05:54:43.278Z,61.87
2023-03-14T05:55:43.296Z,62.04
2023-03-14T05:56:43.257Z,64.29
2023-03-14T05:57:43.254Z,62.20
2023-03-14T05:58:43.227Z,62.36
2023-03-14T05:59:43.235Z,61.07
2023-03-14T06:00:43.202Z,62.04
2023-03-14T06:01:43.244Z,67.68
2023-03-14T06:02:43.182Z,63.49
2023-03-14T06:03:43.238Z,63.00
2023-03-14T06:04:43.164Z,59.78
2023-03-14T06:05:43.162Z,61.39
2023-03-14T06:06:43.141Z,62.04
2023-03-14T06:07:43.128Z,60.75
2023-03-14T06:08:43.130Z,62.68
2023-03-14T06:09:43.176Z,65.90
2023-03-14T06:10:43.093Z,66.55
2023-03-14T06:11:43.090Z,61.71
2023-03-14T06:12:43.078Z,65.42
2023-03-14T06:13:43.074Z,64.78
2023-03-14T06:14:43.054Z,61.55
2023-03-14T06:15:43.055Z,61.87
2023-03-14T06:16:43.092Z,73.80
2023-03-14T06:17:43.043Z,63.16
2023-03-14T06:18:43.045Z,65.90
2023-03-14T06:19:43.036Z,65.58
2023-03-14T06:20:43.020Z,62.52
2023-03-14T06:21:43.016Z,64.29
2023-03-14T06:22:42.973Z,66.87
2023-03-14T06:23:42.970Z,61.87
2023-03-14T06:24:43.089Z,71.38
2023-03-14T06:25:42.949Z,61.55
2023-03-14T06:26:42.932Z,59.46
2023-03-14T06:27:42.929Z,61.23
2023-03-14T06:28:42.931Z,59.30
2023-03-14T06:29:42.898Z,64.29
2023-03-14T06:30:42.938Z,63.97
2023-03-14T06:31:42.873Z,63.81
2023-03-14T06:32:42.887Z,66.23
2023-03-14T06:33:42.866Z,64.61
2023-03-14T06:34:42.854Z,60.75
2023-03-14T06:35:42.895Z,65.90
2023-03-14T06:36:42.841Z,58.65
2023-03-14T06:37:42.820Z,68.80
2023-03-14T06:38:42.833Z,64.78
2023-03-14T06:39:42.798Z,66.55
2023-03-14T06:40:42.905Z,61.71
2023-03-14T06:41:43.721Z,68.80
2023-03-14T06:42:42.767Z,64.61
2023-03-14T06:43:42.774Z,61.23
2023-03-14T06:44:42.758Z,61.55
2023-03-14T06:45:42.787Z,61.71
2023-03-14T06:46:42.724Z,61.71
2023-03-14T06:47:42.801Z,67.84
2023-03-14T06:48:42.716Z,66.71
2023-03-14T06:49:42.686Z,65.74
2023-03-14T06:50:42.699Z,61.07
2023-03-14T06:51:42.663Z,61.71
2023-03-14T06:52:42.706Z,67.68
2023-03-14T06:53:42.663Z,66.23
2023-03-14T06:54:42.644Z,62.04
2023-03-14T06:55:42.625Z,61.07
2023-03-14T06:56:42.691Z,64.29
2023-03-14T06:57:42.609Z,62.84
2023-03-14T06:58:42.646Z,64.29
2023-03-14T06:59:42.702Z,59.78
2023-03-14T07:00:42.624Z,61.87
2023-03-14T07:01:42.651Z,64.94
2023-03-14T07:02:43.537Z,71.54
2023-03-14T07:03:43.600Z,78.15
2023-03-14T07:04:42.605Z,63.97
2023-03-14T07:05:42.558Z,65.10
2023-03-14T07:06:42.543Z,70.25
2023-03-14T07:07:42.540Z,62.68
2023-03-14T07:08:42.533Z,65.42
2023-03-14T07:09:42.516Z,61.23
2023-03-14T07:10:42.499Z,57.20
2023-03-14T07:11:42.497Z,62.52
2023-03-14T07:12:42.489Z,63.97
2023-03-14T07:13:42.488Z,63.81
2023-03-14T07:14:42.466Z,64.29
2023-03-14T07:15:42.517Z,62.20
2023-03-14T07:16:42.454Z,64.61
2023-03-14T07:17:42.437Z,65.74
2023-03-14T07:18:42.429Z,59.94
2023-03-14T07:19:42.426Z,64.29
2023-03-14T07:20:42.407Z,53.01
2023-03-14T07:21:42.409Z,65.26
2023-03-14T07:22:42.405Z,61.71
2023-03-14T07:23:42.396Z,62.20
2023-03-14T07:24:42.367Z,52.21
2023-03-14T07:25:42.361Z,51.56
2023-03-14T07:26:42.364Z,58.49
2023-03-14T07:27:42.319Z,52.85
2023-03-14T07:28:42.347Z,61.39
2023-03-14T07:29:42.322Z,62.20
2023-03-14T07:30:42.313Z,66.55
2023-03-14T07:31:42.297Z,64.61
2023-03-14T07:32:42.354Z,58.81
2023-03-14T07:33:42.312Z,60.26
2023-03-14T07:34:42.282Z,60.91
2023-03-14T07:35:42.277Z,64.61
2023-03-14T07:36:42.264Z,62.36
2023-03-14T07:37:42.252Z,64.29
2023-03-14T07:38:42.242Z,55.43
2023-03-14T07:39:42.233Z,57.52
2023-03-14T07:40:42.216Z,61.71
2023-03-14T07:41:42.214Z,58.81
2023-03-14T07:42:42.184Z,69.29
2023-03-14T07:43:42.191Z,64.13
2023-03-14T07:44:42.190Z,65.10
2023-03-14T07:45:43.456Z,62.04
2023-03-14T07:46:42.199Z,64.94
2023-03-14T07:47:42.133Z,62.36
2023-03-14T07:48:42.130Z,64.13
2023-03-14T07:49:42.109Z,61.39
2023-03-14T07:50:42.082Z,61.87
2023-03-14T07:51:42.108Z,62.04
2023-03-14T07:52:42.080Z,62.84
2023-03-14T07:53:42.077Z,69.93
2023-03-14T07:54:42.057Z,60.26
2023-03-14T07:55:42.075Z,53.66
2023-03-14T07:56:42.063Z,61.55
2023-03-14T07:57:42.062Z,64.94
2023-03-14T07:58:42.032Z,54.14
2023-03-14T07:59:42.046Z,65.58
2023-03-14T08:00:42.030Z,63.81
2023-03-14T08:01:42.016Z,67.35
2023-03-14T08:02:42.009Z,62.36
2023-03-14T08:03:42.013Z,52.05
2023-03-14T08:04:55.658Z,71.38
2023-03-14T08:05:41.988Z,59.14
2023-03-14T08:06:41.991Z,63.33
2023-03-14T08:07:41.979Z,65.58
2023-03-14T08:08:41.962Z,60.75
2023-03-14T08:09:41.970Z,61.55
2023-03-14T08:10:41.942Z,59.78
2023-03-14T08:11:41.940Z,65.26
2023-03-14T08:12:41.918Z,63.65
2023-03-14T08:13:41.914Z,59.94
2023-03-14T08:14:41.903Z,61.71
2023-03-14T08:15:41.925Z,66.39
2023-03-14T08:16:41.904Z,66.39
2023-03-14T08:17:41.857Z,60.59
2023-03-14T08:18:41.870Z,61.39
2023-03-14T08:19:41.847Z,66.23
2023-03-14T08:20:41.828Z,63.33
2023-03-14T08:21:41.837Z,61.07
2023-03-14T08:22:41.816Z,58.49
2023-03-14T08:23:41.802Z,64.78
2023-03-14T08:24:41.798Z,67.19
2023-03-14T08:25:41.855Z,61.71
2023-03-14T08:26:41.784Z,63.81
2023-03-14T08:27:41.774Z,61.71
2023-03-14T08:28:41.749Z,67.03
2023-03-14T08:29:41.818Z,64.29
2023-03-14T08:30:43.147Z,60.26
2023-03-14T08:31:41.845Z,68.64
2023-03-14T08:32:41.765Z,62.52
2023-03-14T08:33:41.724Z,66.87
2023-03-14T08:34:41.711Z,55.59
2023-03-14T08:35:41.701Z,60.75
2023-03-14T08:36:41.730Z,53.01
2023-03-14T08:37:41.679Z,67.19
2023-03-14T08:38:41.683Z,63.33
2023-03-14T08:39:41.703Z,66.87
2023-03-14T08:40:41.644Z,57.85
2023-03-14T08:41:41.617Z,65.42
2023-03-14T08:42:41.609Z,63.49
2023-03-14T08:43:41.630Z,54.30
2023-03-14T08:44:41.614Z,60.42
2023-03-14T08:45:41.590Z,59.46
2023-03-14T08:46:41.605Z,62.04
2023-03-14T08:47:41.548Z,62.36
2023-03-14T08:48:41.597Z,62.84
2023-03-14T08:49:41.585Z,63.33
2023-03-14T08:50:41.507Z,62.36
2023-03-14T08:51:41.492Z,62.68
2023-03-14T08:52:41.490Z,66.55
2023-03-14T08:53:41.488Z,62.68
2023-03-14T08:54:41.483Z,63.97
2023-03-14T08:55:41.455Z,56.40
2023-03-14T08:56:41.434Z,61.07
2023-03-14T08:57:41.457Z,65.90
2023-03-14T08:58:41.462Z,63.00
2023-03-14T08:59:41.460Z,67.19
2023-03-14T09:00:41.423Z,66.87
2023-03-14T09:01:41.387Z,63.16
2023-03-14T09:02:41.440Z,56.07
2023-03-14T09:03:41.387Z,63.65
2023-03-14T09:04:41.427Z,56.88
2023-03-14T09:05:41.408Z,71.22
2023-03-14T09:06:41.382Z,59.94
2023-03-14T09:07:41.368Z,60.75
2023-03-14T09:08:41.359Z,62.36
2023-03-14T09:09:41.379Z,52.37
2023-03-14T09:10:41.329Z,61.55
2023-03-14T09:11:41.302Z,66.23
2023-03-14T09:12:41.327Z,64.29
2023-03-14T09:13:41.320Z,64.61
2023-03-14T09:14:41.316Z,64.29
2023-03-14T09:15:41.293Z,59.94
2023-03-14T09:16:41.427Z,58.65
2023-03-14T09:17:41.269Z,65.42
2023-03-14T09:18:41.254Z,62.84
2023-03-14T09:19:41.243Z,64.61
2023-03-14T09:20:41.233Z,72.83
2023-03-14T09:21:41.303Z,64.13
2023-03-14T09:22:41.232Z,59.94
2023-03-14T09:23:41.259Z,49.79
2023-03-14T09:24:41.254Z,58.01
2023-03-14T09:25:41.234Z,62.52
2023-03-14T09:26:41.223Z,62.84
2023-03-14T09:27:41.341Z,64.13
2023-03-14T09:28:41.274Z,60.91
2023-03-14T09:29:41.280Z,62.04
2023-03-14T09:30:41.249Z,60.59
2023-03-14T09:31:41.238Z,59.94
2023-03-14T09:32:41.224Z,61.39
2023-03-14T09:33:41.140Z,60.42
2023-03-14T09:34:41.127Z,64.13
2023-03-14T09:35:41.116Z,49.95
2023-03-14T09:36:41.076Z,64.13
2023-03-14T09:37:41.077Z,62.52
2023-03-14T09:38:41.071Z,58.01
2023-03-14T09:39:41.104Z,68.00
2023-03-14T09:40:41.042Z,61.39
2023-03-14T09:41:41.034Z,62.84
2023-03-14T09:42:41.053Z,64.13
2023-03-14T09:43:41.019Z,66.39
2023-03-14T09:44:41.017Z,61.23
2023-03-14T09:45:41.062Z,65.90
2023-03-14T09:46:41.101Z,61.23
2023-03-14T09:47:49.207Z,65.10
2023-03-14T09:49:10.136Z,60.75
2023-03-14T09:49:41.010Z,51.24
2023-03-14T09:50:40.928Z,64.78
2023-03-14T09:51:40.899Z,64.94
2023-03-14T09:52:40.916Z,67.19
2023-03-14T09:53:40.906Z,68.64
2023-03-14T09:54:40.921Z,60.10
2023-03-14T09:55:40.896Z,63.97
2023-03-14T09:56:40.881Z,56.88
2023-03-14T09:57:40.856Z,63.81
2023-03-14T09:58:40.875Z,61.07
2023-03-14T09:59:40.928Z,60.91
2023-03-14T10:00:40.865Z,57.85
2023-03-14T10:01:40.885Z,66.23
2023-03-14T10:02:40.860Z,64.61
2023-03-14T10:03:40.819Z,61.07
2023-03-14T10:04:40.876Z,67.19
2023-03-14T10:05:40.786Z,65.90
2023-03-14T10:06:40.846Z,64.29
2023-03-14T10:07:40.771Z,68.32
2023-03-14T10:08:40.790Z,61.23
2023-03-14T10:09:40.758Z,66.23
2023-03-14T10:10:40.758Z,62.20
2023-03-14T10:11:40.770Z,64.78
2023-03-14T10:12:40.774Z,61.87
2023-03-14T10:13:40.758Z,70.74
2023-03-14T10:14:40.729Z,63.33
2023-03-14T10:15:40.673Z,66.87
2023-03-14T10:16:40.715Z,70.25
2023-03-14T10:17:40.744Z,62.04
2023-03-14T10:18:40.771Z,65.10
2023-03-14T10:19:40.677Z,62.04
2023-03-14T10:20:40.697Z,59.62
2023-03-14T10:21:40.622Z,61.23
2023-03-14T10:22:40.693Z,60.42
2023-03-14T10:23:40.606Z,66.23
2023-03-14T10:24:40.689Z,67.68
2023-03-14T10:25:40.604Z,61.87
2023-03-14T10:26:40.563Z,62.36
2023-03-14T10:27:40.605Z,61.39
2023-03-14T10:28:40.563Z,60.26
2023-03-14T10:29:40.609Z,65.58
2023-03-14T10:30:40.565Z,63.16
2023-03-14T10:31:40.525Z,63.33
2023-03-14T10:32:40.575Z,60.91
2023-03-14T10:33:40.496Z,62.36
2023-03-14T10:34:40.604Z,64.61
2023-03-14T10:35:40.531Z,63.00
2023-03-14T10:36:40.522Z,63.16
2023-03-14T10:37:40.480Z,63.00
2023-03-14T10:38:40.470Z,62.20
2023-03-14T10:39:40.466Z,63.49
2023-03-14T10:40:40.435Z,64.45
2023-03-14T10:41:40.441Z,61.87
2023-03-14T10:42:40.459Z,60.26
2023-03-14T10:43:40.405Z,56.07
2023-03-14T10:44:40.476Z,61.55
2023-03-14T10:45:40.411Z,58.33
2023-03-14T10:46:40.443Z,61.07
2023-03-14T10:47:40.357Z,68.96
2023-03-14T10:48:40.370Z,61.71
2023-03-14T10:49:40.369Z,62.04
2023-03-14T10:50:40.358Z,62.20
2023-03-14T10:51:40.322Z,63.81
2023-03-14T10:52:57.720Z,63.16
2023-03-14T10:53:42.335Z,64.45
2023-03-14T10:54:40.318Z,59.30
2023-03-14T10:55:40.320Z,65.10
2023-03-14T10:56:40.333Z,62.20
2023-03-14T10:57:40.296Z,61.55
2023-03-14T10:58:40.279Z,59.14
2023-03-14T10:59:40.274Z,65.10
2023-03-14T11:00:40.279Z,64.29
2023-03-14T11:01:40.367Z,63.49
2023-03-14T11:02:40.256Z,65.74
2023-03-14T11:03:40.264Z,61.23
2023-03-14T11:04:40.246Z,56.07
2023-03-14T11:05:40.252Z,61.55
2023-03-14T11:06:40.211Z,60.75
2023-03-14T11:07:40.246Z,61.71
2023-03-14T11:08:40.176Z,65.58
2023-03-14T11:09:40.160Z,63.49
2023-03-14T11:10:40.204Z,63.65
2023-03-14T11:11:40.168Z,66.71
2023-03-14T11:12:40.142Z,62.52
2023-03-14T11:13:40.155Z,64.45
2023-03-14T11:14:40.114Z,58.49
2023-03-14T11:15:40.127Z,61.87
2023-03-14T11:16:40.124Z,66.23
2023-03-14T11:17:40.098Z,62.84
2023-03-14T11:18:41.099Z,61.87
2023-03-14T11:19:40.134Z,61.87
2023-03-14T11:20:40.048Z,62.04
2023-03-14T11:21:40.089Z,64.61
2023-03-14T11:22:40.077Z,64.61
2023-03-14T11:23:40.042Z,63.33
2023-03-14T11:24:40.033Z,61.07
2023-03-14T11:25:40.013Z,62.20
2023-03-14T11:26:40.002Z,51.08
2023-03-14T11:27:39.999Z,61.23
2023-03-14T11:28:40.019Z,64.13
2023-03-14T11:29:40.001Z,65.10
2023-03-14T11:30:39.937Z,66.87
2023-03-14T11:31:39.977Z,63.81
2023-03-14T11:32:40.253Z,58.81
2023-03-14T11:33:39.911Z,66.71
2023-03-14T11:34:39.932Z,64.61
2023-03-14T11:35:39.946Z,63.49
2023-03-14T11:36:39.901Z,63.16
2023-03-14T11:37:39.869Z,64.78
2023-03-14T11:38:39.844Z,65.42
2023-03-14T11:39:39.894Z,61.23
2023-03-14T11:40:39.888Z,68.00
2023-03-14T11:41:39.886Z,64.61
2023-03-14T11:42:39.820Z,67.35
2023-03-14T11:43:39.855Z,60.75
2023-03-14T11:44:39.809Z,61.07
2023-03-14T11:45:39.806Z,66.71
2023-03-14T11:46:39.823Z,59.14
2023-03-14T11:47:39.776Z,60.42
2023-03-14T11:48:39.783Z,56.40
2023-03-14T11:49:39.764Z,64.13
2023-03-14T11:50:39.751Z,59.78
2023-03-14T11:51:39.784Z,66.87
2023-03-14T11:52:39.748Z,74.44
2023-03-14T11:53:39.763Z,61.71
2023-03-14T11:54:39.712Z,50.76
2023-03-14T11:55:39.711Z,65.10
2023-03-14T11:56:39.700Z,68.16
2023-03-14T11:57:39.677Z,72.03
2023-03-14T11:58:39.702Z,62.84
2023-03-14T11:59:39.658Z,63.65
2023-03-14T12:00:39.756Z,61.55
2023-03-14T12:01:39.729Z,62.04
2023-03-14T12:02:39.641Z,71.22
2023-03-14T12:03:39.650Z,63.97
2023-03-14T12:04:39.585Z,65.74
2023-03-14T12:05:39.614Z,64.61
2023-03-14T12:06:39.608Z,60.59
2023-03-14T12:07:39.567Z,67.35
2023-03-14T12:08:39.567Z,62.36
2023-03-14T12:09:39.567Z,65.10
2023-03-14T12:10:39.565Z,65.42
2023-03-14T12:11:39.508Z,67.35
2023-03-14T12:12:39.609Z,67.68
2023-03-14T12:13:39.520Z,63.81
2023-03-14T12:14:39.631Z,68.16
2023-03-14T12:15:39.691Z,63.65
2023-03-14T12:16:41.335Z,66.55
2023-03-14T12:17:40.790Z,65.42
2023-03-14T12:18:39.625Z,68.80
2023-03-14T12:19:39.439Z,66.71
2023-03-14T12:20:39.439Z,66.55
2023-03-14T12:21:39.449Z,70.58
2023-03-14T12:22:39.439Z,72.35
2023-03-14T12:23:39.413Z,72.83
2023-03-14T12:24:39.430Z,75.41
2023-03-14T12:25:39.404Z,72.19
2023-03-14T12:26:39.371Z,73.15
2023-03-14T12:27:39.399Z,73.32
2023-03-14T12:28:39.351Z,69.29
2023-03-14T12:29:39.361Z,62.84
2023-03-14T12:30:39.321Z,63.97
2023-03-14T12:31:39.367Z,67.03
2023-03-14T12:32:39.459Z,69.29
2023-03-14T12:33:39.320Z,69.29
2023-03-14T12:34:39.558Z,68.80
2023-03-14T12:35:39.314Z,66.87
2023-03-14T12:36:39.255Z,69.45
2023-03-14T12:37:39.269Z,68.64
2023-03-14T12:38:39.266Z,69.93
2023-03-14T12:39:39.245Z,70.74
2023-03-14T12:40:39.226Z,64.61
2023-03-14T12:41:39.209Z,68.32
2023-03-14T12:42:45.014Z,66.71
2023-03-14T12:43:41.209Z,65.90
2023-03-14T12:44:39.191Z,70.58
2023-03-14T12:45:39.217Z,70.90
2023-03-14T12:46:39.155Z,74.93
2023-03-14T12:47:39.155Z,81.53
2023-03-14T12:48:39.151Z,78.63
2023-03-14T12:49:39.168Z,66.55
2023-03-14T12:50:39.123Z,69.77
2023-03-14T12:51:39.102Z,67.19
2023-03-14T12:52:39.999Z,75.09
2023-03-14T12:53:39.154Z,73.80
2023-03-14T12:54:39.123Z,75.25